createdAt,value
2023-03-28T00:00:16.768Z,-4.33
2023-03-28T00:01:18.673Z,-4.34
2023-03-28T00:02:22.885Z,-4.35
2023-03-28T00:03:27.165Z,-4.36
2023-03-28T00:04:30.013Z,-4.40
2023-03-28T00:05:32.415Z,-4.42
2023-03-28T00:06:35.388Z,-4.43
2023-03-28T00:07:37.264Z,-4.46
2023-03-28T00:08:40.629Z,-4.47
2023-03-28T00:09:43.378Z,-4.50
2023-03-28T00:10:46.569Z,-4.53
2023-03-28T00:11:48.884Z,-4.59
2023-03-28T00:12:52.139Z,-4.64
2023-03-28T00:13:58.136Z,-4.67
2023-03-28T00:15:00.878Z,-4.71
2023-03-28T00:16:05.784Z,-4.72
2023-03-28T00:17:07.728Z,-4.75
2023-03-28T00:18:12.632Z,-4.79
2023-03-28T00:19:16.243Z,-4.83
2023-03-28T00:20:19.753Z,-4.86
2023-03-28T00:21:24.025Z,-4.91
2023-03-28T00:22:30.569Z,-4.96
2023-03-28T00:23:34.009Z,-5.03
2023-03-28T00:24:38.810Z,-5.07
2023-03-28T00:25:41.648Z,-5.10
2023-03-28T00:26:49.410Z,-5.15
2023-03-28T00:27:51.496Z,-5.19
2023-03-28T00:28:54.897Z,-5.23
2023-03-28T00:29:56.692Z,-5.25
2023-03-28T00:31:03.928Z,-5.30
2023-03-28T00:32:06.924Z,-5.34
2023-03-28T00:33:08.848Z,-5.38
2023-03-28T00:34:13.260Z,-5.42
2023-03-28T00:35:15.910Z,-5.46
2023-03-28T00:36:22.910Z,-5.48
2023-03-28T00:37:25.546Z,-5.51
2023-03-28T00:38:28.884Z,-5.52
2023-03-28T00:39:31.372Z,-5.56
2023-03-28T00:40:37.769Z,-5.58
2023-03-28T00:41:42.594Z,-5.62
2023-03-28T00:42:45.692Z,-5.66
2023-03-28T00:43:49.833Z,-5.75
2023-03-28T00:44:54.754Z,-5.83
2023-03-28T00:46:08.311Z,-5.86
2023-03-28T00:47:25.512Z,-5.89
2023-03-28T00:48:28.331Z,-5.90
2023-03-28T00:49:32.613Z,-5.91
2023-03-28T00:50:38.006Z,-5.93
2023-03-28T00:51:43.561Z,-5.94
2023-03-28T00:52:49.739Z,-5.97
2023-03-28T00:53:53.431Z,-5.97
2023-03-28T00:54:57.576Z,-5.98
2023-03-28T00:56:04.240Z,-5.98
2023-03-28T00:57:07.541Z,-5.98
2023-03-28T00:58:12.372Z,-5.97
2023-03-28T00:59:16.988Z,-5.95
2023-03-28T01:00:20.982Z,-5.94
2023-03-28T01:01:23.058Z,-5.92
2023-03-28T01:02:26.021Z,-5.91
2023-03-28T01:03:30.476Z,-5.95
2023-03-28T01:04:39.145Z,-5.97
2023-03-28T01:05:42.488Z,-6.00
2023-03-28T01:06:46.633Z,-6.02
2023-03-28T01:07:56.488Z,-6.03
2023-03-28T01:08:59.629Z,-6.07
2023-03-28T01:10:05.141Z,-6.12
2023-03-28T01:11:07.276Z,-6.14
2023-03-28T01:12:11.199Z,-6.17
2023-03-28T01:13:13.743Z,-6.17
2023-03-28T01:14:20.680Z,-6.18
2023-03-28T01:15:24.692Z,-6.19
2023-03-28T01:16:32.822Z,-6.20
2023-03-28T01:17:37.919Z,-6.21
2023-03-28T01:18:41.838Z,-6.24
2023-03-28T01:19:59.046Z,-6.25
2023-03-28T01:21:26.151Z,-6.27
2023-03-28T01:23:12.182Z,-6.27
2023-03-28T01:24:40.550Z,-6.28
2023-03-28T01:26:12.099Z,-6.30
2023-03-28T01:27:19.231Z,-6.31
2023-03-28T01:28:31.218Z,-6.31
2023-03-28T01:30:01.693Z,-6.32
2023-03-28T01:31:36.073Z,-6.36
2023-03-28T01:33:05.766Z,-6.41
2023-03-28T01:34:53.284Z,-6.48
2023-03-28T01:36:10.680Z,-6.53
2023-03-28T01:37:26.024Z,-6.56
2023-03-28T01:38:35.611Z,-6.58
2023-03-28T01:39:49.112Z,-6.58
2023-03-28T01:41:02.304Z,-6.60
2023-03-28T01:42:17.884Z,-6.61
2023-03-28T01:43:27.956Z,-6.62
2023-03-28T01:44:37.919Z,-6.63
2023-03-28T01:45:45.967Z,-6.62
2023-03-28T01:46:58.150Z,-6.64
2023-03-28T01:48:04.764Z,-6.65
2023-03-28T01:49:10.314Z,-6.67
2023-03-28T01:50:18.153Z,-6.67
2023-03-28T01:51:26.168Z,-6.67
2023-03-28T01:52:36.214Z,-6.63
2023-03-28T01:53:44.641Z,-6.64
2023-03-28T01:54:52.374Z,-6.63
2023-03-28T01:56:01.941Z,-6.63
2023-03-28T01:57:10.555Z,-6.63
2023-03-28T01:58:16.989Z,-6.61
2023-03-28T01:59:27.440Z,-6.59
2023-03-28T02:01:04.364Z,-6.55
2023-03-28T02:02:11.627Z,-6.52
2023-03-28T02:03:18.720Z,-6.47
2023-03-28T02:04:37.416Z,-6.40
2023-03-28T02:05:41.065Z,-6.32
2023-03-28T02:06:48.177Z,-6.25
2023-03-28T02:07:58.357Z,-6.17
2023-03-28T02:09:10.838Z,-6.06
2023-03-28T02:10:33.639Z,-5.93
2023-03-28T02:11:39.098Z,-5.83
2023-03-28T02:13:16.099Z,-5.69
2023-03-28T02:14:37.828Z,-5.60
2023-03-28T02:16:16.755Z,-5.48
2023-03-28T02:17:41.571Z,-5.35
2023-03-28T02:19:03.632Z,-5.21
2023-03-28T02:20:19.473Z,-5.09
2023-03-28T02:21:43.451Z,-4.95
2023-03-28T02:23:26.058Z,-4.81
2023-03-28T02:24:50.498Z,-4.66
2023-03-28T02:26:12.424Z,-4.53
2023-03-28T02:27:44.527Z,-4.37
2023-03-28T02:28:55.800Z,-4.26
2023-03-28T02:30:10.544Z,-4.17
2023-03-28T02:31:13.805Z,-4.09
2023-03-28T02:32:21.579Z,-4.03
2023-03-28T02:33:33.581Z,-3.95
2023-03-28T02:34:36.497Z,-3.89
2023-03-28T02:35:48.571Z,-3.81
2023-03-28T02:36:54.974Z,-3.74
2023-03-28T02:38:04.005Z,-3.70
2023-03-28T02:39:29.324Z,-3.63
2023-03-28T02:40:47.867Z,-3.57
2023-03-28T02:42:16.963Z,-3.53
2023-03-28T02:43:35.480Z,-3.50
2023-03-28T02:44:50.050Z,-3.45
2023-03-28T02:46:07.925Z,-3.40
2023-03-28T02:47:16.961Z,-3.36
2023-03-28T02:48:30.046Z,-3.29
2023-03-28T02:49:49.934Z,-3.21
2023-03-28T02:51:06.195Z,-3.12
2023-03-28T02:52:14.826Z,-3.05
2023-03-28T02:53:22.779Z,-2.97
2023-03-28T02:54:31.050Z,-2.91
2023-03-28T02:55:58.116Z,-2.85
2023-03-28T02:57:24.283Z,-2.78
2023-03-28T02:58:34.234Z,-2.72
2023-03-28T02:59:41.279Z,-2.67
2023-03-28T03:00:44.084Z,-2.62
2023-03-28T03:01:45.978Z,-2.55
2023-03-28T03:02:51.463Z,-2.48
2023-03-28T03:03:54.464Z,-2.43
2023-03-28T03:05:01.831Z,-2.40
2023-03-28T03:06:04.321Z,-2.36
2023-03-28T03:07:09.450Z,-2.31
2023-03-28T03:08:12.679Z,-2.26
2023-03-28T03:09:16.667Z,-2.23
2023-03-28T03:10:21.974Z,-2.17
2023-03-28T03:11:27.960Z,-2.14
2023-03-28T03:12:30.958Z,-2.10
2023-03-28T03:13:33.051Z,-2.06
2023-03-28T03:14:39.045Z,-2.03
2023-03-28T03:16:06.258Z,-2.01
2023-03-28T03:17:08.614Z,-1.98
2023-03-28T03:18:12.995Z,-1.96
2023-03-28T03:19:15.389Z,-1.91
2023-03-28T03:20:19.121Z,-1.88
2023-03-28T03:21:21.861Z,-1.83
2023-03-28T03:22:25.073Z,-1.80
2023-03-28T03:23:27.273Z,-1.74
2023-03-28T03:24:34.525Z,-1.71
2023-03-28T03:25:38.521Z,-1.68
2023-03-28T03:26:57.524Z,-1.64
2023-03-28T03:27:59.355Z,-1.60
2023-03-28T03:29:02.975Z,-1.56
2023-03-28T03:30:08.296Z,-1.51
2023-03-28T03:31:29.409Z,-1.49
2023-03-28T03:32:49.788Z,-1.48
2023-03-28T03:33:52.655Z,-1.45
2023-03-28T03:34:59.372Z,-1.43
2023-03-28T03:36:04.010Z,-1.40
2023-03-28T03:37:07.132Z,-1.38
2023-03-28T03:38:09.176Z,-1.36
2023-03-28T03:39:12.065Z,-1.36
2023-03-28T03:40:14.684Z,-1.34
2023-03-28T03:41:21.836Z,-1.31
2023-03-28T03:42:24.212Z,-1.31
2023-03-28T03:43:28.347Z,-1.31
2023-03-28T03:44:30.368Z,-1.29
2023-03-28T03:45:33.240Z,-1.28
2023-03-28T03:46:35.074Z,-1.25
2023-03-28T03:47:38.445Z,-1.25
2023-03-28T03:48:49.389Z,-1.23
2023-03-28T03:49:53.128Z,-1.24
2023-03-28T03:50:54.942Z,-1.24
2023-03-28T03:51:58.066Z,-1.23
2023-03-28T03:53:00.915Z,-1.21
2023-03-28T03:54:12.055Z,-1.20
2023-03-28T03:55:14.815Z,-1.19
2023-03-28T03:56:19.225Z,-1.18
2023-03-28T03:57:31.189Z,-1.18
2023-03-28T03:58:36.410Z,-1.18
2023-03-28T03:59:44.761Z,-1.18
2023-03-28T04:00:50.696Z,-1.18
2023-03-28T04:02:12.092Z,-1.18
2023-03-28T04:03:34.298Z,-1.19
2023-03-28T04:04:40.456Z,-1.17
2023-03-28T04:05:50.855Z,-1.18
2023-03-28T04:06:53.702Z,-1.16
2023-03-28T04:07:57.554Z,-1.15
2023-03-28T04:09:06.142Z,-1.15
2023-03-28T04:10:28.510Z,-1.16
2023-03-28T04:11:31.818Z,-1.14
2023-03-28T04:12:35.003Z,-1.14
2023-03-28T04:13:37.916Z,-1.12
2023-03-28T04:14:41.268Z,-1.11
2023-03-28T04:16:23.933Z,-1.12
2023-03-28T04:17:34.706Z,-1.13
2023-03-28T04:18:40.767Z,-1.11
2023-03-28T04:19:45.819Z,-1.10
2023-03-28T04:20:53.744Z,-1.10
2023-03-28T04:22:13.412Z,-1.09
2023-03-28T04:23:25.732Z,-1.07
2023-03-28T04:24:29.748Z,-1.05
2023-03-28T04:25:55.201Z,-1.04
2023-03-28T04:27:18.045Z,-1.03
2023-03-28T04:28:25.983Z,-1.02
2023-03-28T04:29:35.920Z,-1.01
2023-03-28T04:30:58.102Z,-1.01
2023-03-28T04:32:05.609Z,-0.99
2023-03-28T04:33:34.033Z,-0.99
2023-03-28T04:34:39.234Z,-0.98
2023-03-28T04:35:48.649Z,-0.96
2023-03-28T04:36:51.010Z,-0.93
2023-03-28T04:37:57.774Z,-0.92
2023-03-28T04:39:02.407Z,-0.91
2023-03-28T04:40:28.147Z,-0.88
2023-03-28T04:41:50.162Z,-0.83
2023-03-28T04:43:02.347Z,-0.80
2023-03-28T04:44:10.584Z,-0.79
2023-03-28T04:45:21.860Z,-0.77
2023-03-28T04:46:24.014Z,-0.75
2023-03-28T04:47:27.064Z,-0.72
2023-03-28T04:48:29.078Z,-0.70
2023-03-28T04:49:32.331Z,-0.69
2023-03-28T04:50:35.943Z,-0.68
2023-03-28T04:51:39.056Z,-0.66
2023-03-28T04:52:41.887Z,-0.66
2023-03-28T04:53:44.871Z,-0.64
2023-03-28T04:55:25.795Z,-0.62
2023-03-28T04:56:27.960Z,-0.59
2023-03-28T04:57:31.849Z,-0.59
2023-03-28T04:58:41.688Z,-0.60
2023-03-28T04:59:45.276Z,-0.60
2023-03-28T05:00:56.933Z,-0.61
2023-03-28T05:02:28.899Z,-0.64
2023-03-28T05:03:39.671Z,-0.66
2023-03-28T05:04:43.288Z,-0.66
2023-03-28T05:05:46.714Z,-0.67
2023-03-28T05:06:49.898Z,-0.71
2023-03-28T05:07:52.835Z,-0.76
2023-03-28T05:08:57.710Z,-0.79
2023-03-28T05:10:03.191Z,-0.85
2023-03-28T05:11:11.841Z,-0.88
2023-03-28T05:12:13.679Z,-0.90
2023-03-28T05:13:34.794Z,-0.90
2023-03-28T05:14:46.424Z,-0.93
2023-03-28T05:15:52.198Z,-0.91
2023-03-28T05:17:10.783Z,-0.92
2023-03-28T05:18:35.897Z,-0.91
2023-03-28T05:19:39.345Z,-0.90
2023-03-28T05:20:45.709Z,-0.88
2023-03-28T05:21:48.497Z,-0.87
2023-03-28T05:22:50.331Z,-0.87
2023-03-28T05:23:53.472Z,-0.89
2023-03-28T05:24:58.354Z,-0.87
2023-03-28T05:26:02.472Z,-0.87
2023-03-28T05:27:07.291Z,-0.84
2023-03-28T05:28:10.179Z,-0.79
2023-03-28T05:29:23.065Z,-0.73
2023-03-28T05:30:27.907Z,-0.65
2023-03-28T05:31:32.787Z,-0.58
2023-03-28T05:32:53.921Z,-0.54
2023-03-28T05:33:55.850Z,-0.51
2023-03-28T05:35:13.216Z,-0.50
2023-03-28T05:36:15.187Z,-0.51
2023-03-28T05:37:18.013Z,-0.50
2023-03-28T05:38:25.280Z,-0.52
2023-03-28T05:39:31.688Z,-0.52
2023-03-28T05:40:43.660Z,-0.51
2023-03-28T05:41:45.662Z,-0.50
2023-03-28T05:42:48.475Z,-0.49
2023-03-28T05:43:53.522Z,-0.49
2023-03-28T05:45:12.627Z,-0.47
2023-03-28T05:46:31.583Z,-0.44
2023-03-28T05:47:33.772Z,-0.37
2023-03-28T05:48:36.901Z,-0.34
2023-03-28T05:49:39.095Z,-0.26
2023-03-28T05:50:41.922Z,-0.13
2023-03-28T05:51:44.287Z,-0.00
2023-03-28T05:52:47.424Z,0.10
2023-03-28T05:53:49.546Z,0.18
2023-03-28T05:54:52.533Z,0.23
2023-03-28T05:55:57.283Z,0.25
2023-03-28T05:56:59.184Z,0.27
2023-03-28T05:58:01.998Z,0.32
2023-03-28T05:59:12.764Z,0.34
2023-03-28T06:00:15.744Z,0.41
2023-03-28T06:01:23.326Z,0.49
2023-03-28T06:02:33.462Z,0.55
2023-03-28T06:03:40.015Z,0.67
2023-03-28T06:04:43.508Z,0.75
2023-03-28T06:05:49.324Z,0.86
2023-03-28T06:06:55.065Z,1.06
2023-03-28T06:08:02.805Z,1.22
2023-03-28T06:09:05.182Z,1.29
2023-03-28T06:10:21.400Z,1.37
2023-03-28T06:11:37.648Z,1.40
2023-03-28T06:12:43.573Z,1.47
2023-03-28T06:13:46.705Z,1.52
2023-03-28T06:14:49.766Z,1.56
2023-03-28T06:16:01.530Z,1.55
2023-03-28T06:17:09.877Z,1.54
2023-03-28T06:18:23.694Z,1.49
2023-03-28T06:19:26.456Z,1.44
2023-03-28T06:20:31.225Z,1.37
2023-03-28T06:21:33.554Z,1.34
2023-03-28T06:22:41.356Z,1.33
2023-03-28T06:23:46.662Z,1.34
2023-03-28T06:25:00.310Z,1.29
2023-03-28T06:26:08.517Z,1.25
2023-03-28T06:27:16.651Z,1.21
2023-03-28T06:28:19.431Z,1.16
2023-03-28T06:29:57.562Z,1.12
2023-03-28T06:31:00.846Z,1.16
2023-03-28T06:32:04.173Z,1.21
2023-03-28T06:33:07.403Z,1.22
2023-03-28T06:34:10.693Z,1.23
2023-03-28T06:35:25.371Z,1.20
2023-03-28T06:36:27.242Z,1.16
2023-03-28T06:37:30.127Z,1.15
2023-03-28T06:38:37.511Z,1.08
2023-03-28T06:39:41.293Z,1.02
2023-03-28T06:40:44.962Z,1.01
2023-03-28T06:41:47.939Z,1.02
2023-03-28T06:42:49.907Z,1.04
2023-03-28T06:43:58.575Z,1.04
2023-03-28T06:45:19.833Z,1.01
2023-03-28T06:46:30.433Z,0.90
2023-03-28T06:47:33.441Z,0.72
2023-03-28T06:48:36.502Z,0.66
2023-03-28T06:50:01.054Z,0.65
2023-03-28T06:51:12.816Z,0.70
2023-03-28T06:52:16.887Z,0.88
2023-03-28T06:53:22.091Z,1.27
2023-03-28T06:54:25.303Z,1.41
2023-03-28T06:55:27.093Z,1.43
2023-03-28T06:56:31.966Z,1.39
2023-03-28T06:57:34.635Z,1.24
2023-03-28T06:58:56.742Z,1.14
2023-03-28T07:00:02.302Z,1.09
2023-03-28T07:01:26.365Z,1.23
2023-03-28T07:02:41.558Z,1.82
2023-03-28T07:03:44.945Z,2.48
2023-03-28T07:04:53.471Z,2.84
2023-03-28T07:05:58.588Z,2.98
2023-03-28T07:07:01.682Z,2.98
2023-03-28T07:08:03.567Z,2.92
2023-03-28T07:09:07.551Z,2.84
2023-03-28T07:10:17.392Z,2.69
2023-03-28T07:11:19.306Z,2.56
2023-03-28T07:12:26.228Z,2.44
2023-03-28T07:13:29.138Z,2.27
2023-03-28T07:14:36.666Z,2.04
2023-03-28T07:15:38.498Z,1.86
2023-03-28T07:16:41.510Z,1.71
2023-03-28T07:17:45.334Z,1.59
2023-03-28T07:18:48.281Z,1.50
2023-03-28T07:19:57.261Z,1.39
2023-03-28T07:21:06.932Z,1.34
2023-03-28T07:22:09.892Z,1.32
2023-03-28T07:23:11.850Z,1.33
2023-03-28T07:24:15.592Z,1.38
2023-03-28T07:25:29.627Z,1.51
2023-03-28T07:26:32.412Z,1.57
2023-03-28T07:27:35.310Z,1.65
2023-03-28T07:28:37.432Z,1.68
2023-03-28T07:29:40.687Z,1.70
2023-03-28T07:30:42.533Z,1.73
2023-03-28T07:31:46.553Z,1.71
2023-03-28T07:32:54.966Z,1.68
2023-03-28T07:34:06.387Z,1.56
2023-03-28T07:35:09.452Z,1.48
2023-03-28T07:36:23.033Z,1.38
2023-03-28T07:37:29.557Z,1.31
2023-03-28T07:38:43.321Z,1.25
2023-03-28T07:39:45.472Z,1.25
2023-03-28T07:40:52.730Z,1.32
2023-03-28T07:41:55.634Z,1.44
2023-03-28T07:42:57.560Z,1.59
2023-03-28T07:44:00.802Z,1.70
2023-03-28T07:45:02.695Z,1.77
2023-03-28T07:46:08.194Z,1.80
2023-03-28T07:47:12.022Z,1.81
2023-03-28T07:48:13.824Z,1.79
2023-03-28T07:49:17.614Z,1.77
2023-03-28T07:50:19.926Z,1.64
2023-03-28T07:51:24.563Z,1.55
2023-03-28T07:52:26.526Z,1.51
2023-03-28T07:53:29.638Z,1.48
2023-03-28T07:54:34.419Z,1.43
2023-03-28T07:55:48.459Z,1.40
2023-03-28T07:56:57.970Z,1.41
2023-03-28T07:58:19.274Z,1.46
2023-03-28T07:59:21.759Z,1.45
2023-03-28T08:00:27.648Z,1.47
2023-03-28T08:01:48.799Z,1.47
2023-03-28T08:02:54.045Z,1.49
2023-03-28T08:03:57.055Z,1.58
2023-03-28T08:05:06.473Z,1.66
2023-03-28T08:06:24.341Z,1.72
2023-03-28T08:07:35.540Z,1.74
2023-03-28T08:08:38.748Z,1.67
2023-03-28T08:09:59.061Z,1.54
2023-03-28T08:11:03.875Z,1.48
2023-03-28T08:12:07.094Z,1.45
2023-03-28T08:13:08.983Z,1.46
2023-03-28T08:14:13.611Z,1.46
2023-03-28T08:15:16.775Z,1.45
2023-03-28T08:16:19.895Z,1.42
2023-03-28T08:17:23.380Z,1.33
2023-03-28T08:18:27.632Z,1.29
2023-03-28T08:19:30.883Z,1.23
2023-03-28T08:20:47.804Z,1.17
2023-03-28T08:21:52.034Z,1.20
2023-03-28T08:22:55.694Z,1.27
2023-03-28T08:24:25.350Z,1.47
2023-03-28T08:25:42.413Z,1.77
2023-03-28T08:26:48.206Z,1.90
2023-03-28T08:27:51.705Z,1.95
2023-03-28T08:28:55.233Z,1.91
2023-03-28T08:29:58.013Z,1.74
2023-03-28T08:31:01.966Z,1.61
2023-03-28T08:32:06.350Z,1.52
2023-03-28T08:33:10.679Z,1.34
2023-03-28T08:34:13.993Z,1.18
2023-03-28T08:35:17.352Z,0.99
2023-03-28T08:36:22.731Z,0.80
2023-03-28T08:37:25.052Z,0.64
2023-03-28T08:38:29.596Z,0.52
2023-03-28T08:39:32.573Z,0.30
2023-03-28T08:40:37.237Z,0.10
2023-03-28T08:42:12.044Z,-0.13
2023-03-28T08:43:24.794Z,-0.36
2023-03-28T08:44:48.504Z,-0.50
2023-03-28T08:45:52.539Z,-0.56
2023-03-28T08:46:57.576Z,-0.56
2023-03-28T08:48:08.702Z,-0.50
2023-03-28T08:49:13.939Z,-0.48
2023-03-28T08:50:17.466Z,-0.46
2023-03-28T08:51:25.296Z,-0.37
2023-03-28T08:52:28.109Z,-0.20
2023-03-28T08:53:37.236Z,-0.00
2023-03-28T08:54:43.801Z,0.25
2023-03-28T08:55:47.676Z,0.40
2023-03-28T08:56:51.431Z,0.43
2023-03-28T08:57:55.864Z,0.45
2023-03-28T08:59:04.909Z,0.48
2023-03-28T09:00:14.850Z,0.56
2023-03-28T09:01:20.926Z,0.66
2023-03-28T09:02:25.049Z,0.95
2023-03-28T09:03:29.410Z,1.46
2023-03-28T09:04:37.642Z,2.00
2023-03-28T09:05:50.939Z,2.72
2023-03-28T09:06:57.855Z,3.28
2023-03-28T09:08:03.612Z,3.90
2023-03-28T09:09:26.093Z,4.91
2023-03-28T09:10:46.138Z,5.54
2023-03-28T09:11:58.442Z,5.73
2023-03-28T09:13:08.274Z,5.64
2023-03-28T09:14:23.429Z,5.58
2023-03-28T09:15:39.534Z,5.39
2023-03-28T09:16:55.146Z,5.34
2023-03-28T09:18:12.032Z,5.46
2023-03-28T09:19:36.969Z,5.63
2023-03-28T09:21:14.602Z,5.48
2023-03-28T09:22:27.490Z,5.15
2023-03-28T09:23:41.904Z,4.86
2023-03-28T09:25:20.020Z,4.62
2023-03-28T09:26:26.122Z,4.51
2023-03-28T09:27:47.434Z,4.43
2023-03-28T09:28:58.776Z,4.63
2023-03-28T09:30:11.454Z,4.87
2023-03-28T09:31:15.488Z,4.91
2023-03-28T09:32:22.051Z,4.83
2023-03-28T09:33:27.905Z,4.50
2023-03-28T09:34:37.927Z,4.27
2023-03-28T09:35:41.851Z,4.12
2023-03-28T09:36:48.867Z,4.27
2023-03-28T09:37:56.689Z,4.54
2023-03-28T09:39:00.982Z,4.83
2023-03-28T09:40:16.437Z,5.14
2023-03-28T09:41:48.767Z,5.47
2023-03-28T09:43:16.888Z,5.90
2023-03-28T09:44:52.909Z,5.95
2023-03-28T09:46:20.379Z,5.94
2023-03-28T09:47:34.225Z,5.72
2023-03-28T09:48:42.620Z,5.51
2023-03-28T09:49:47.029Z,5.42
2023-03-28T09:50:52.488Z,5.38
2023-03-28T09:51:56.749Z,5.09
2023-03-28T09:52:59.284Z,4.95
2023-03-28T09:54:07.342Z,4.79
2023-03-28T09:55:18.101Z,4.52
2023-03-28T09:56:27.632Z,4.30
2023-03-28T09:58:05.494Z,4.04
2023-03-28T09:59:27.685Z,3.73
2023-03-28T10:00:35.464Z,3.47
2023-03-28T10:02:26.524Z,3.10
2023-03-28T10:03:32.295Z,2.91
2023-03-28T10:04:39.482Z,2.66
2023-03-28T10:06:01.973Z,2.54
2023-03-28T10:07:28.489Z,2.55
2023-03-28T10:08:39.920Z,2.72
2023-03-28T10:09:56.927Z,2.88
2023-03-28T10:11:04.631Z,3.22
2023-03-28T10:12:09.929Z,3.61
2023-03-28T10:13:14.150Z,3.91
2023-03-28T10:14:34.338Z,4.23
2023-03-28T10:15:45.968Z,4.52
2023-03-28T10:17:04.408Z,4.67
2023-03-28T10:18:18.220Z,4.79
2023-03-28T10:19:24.439Z,4.78
2023-03-28T10:20:38.182Z,4.85
2023-03-28T10:21:42.655Z,4.78
2023-03-28T10:22:50.319Z,4.54
2023-03-28T10:23:59.047Z,4.52
2023-03-28T10:25:01.675Z,4.53
2023-03-28T10:26:06.165Z,4.59
2023-03-28T10:27:16.556Z,4.59
2023-03-28T10:28:28.659Z,4.53
2023-03-28T10:29:31.055Z,4.62
2023-03-28T10:30:35.596Z,4.76
2023-03-28T10:31:39.593Z,4.77
2023-03-28T10:33:24.522Z,4.64
2023-03-28T10:34:35.051Z,4.42
2023-03-28T10:35:57.649Z,4.27
2023-03-28T10:36:59.581Z,4.18
2023-03-28T10:38:16.445Z,4.10
2023-03-28T10:39:42.899Z,3.96
2023-03-28T10:41:25.367Z,3.83
2023-03-28T10:42:45.958Z,3.74
2023-03-28T10:44:19.416Z,3.74
2023-03-28T10:45:33.416Z,3.76
2023-03-28T10:46:37.450Z,3.80
2023-03-28T10:47:59.895Z,3.79
2023-03-28T10:49:05.832Z,3.84
2023-03-28T10:50:21.141Z,3.93
2023-03-28T10:51:25.845Z,3.98
2023-03-28T10:52:36.885Z,3.97
2023-03-28T10:53:55.566Z,3.90
2023-03-28T10:55:09.557Z,3.80
2023-03-28T10:56:41.548Z,3.60
2023-03-28T10:57:52.097Z,3.41
2023-03-28T10:59:06.423Z,3.28
2023-03-28T11:00:12.991Z,3.21
2023-03-28T11:01:19.514Z,3.22
2023-03-28T11:02:46.637Z,3.27
2023-03-28T11:04:07.531Z,3.67
2023-03-28T11:05:18.477Z,3.97
2023-03-28T11:06:24.140Z,4.23
2023-03-28T11:07:31.224Z,4.47
2023-03-28T11:08:56.632Z,4.58
2023-03-28T11:10:14.571Z,4.53
2023-03-28T11:11:45.380Z,4.32
2023-03-28T11:13:02.759Z,4.00
2023-03-28T11:14:21.858Z,3.67
2023-03-28T11:15:29.511Z,3.38
2023-03-28T11:16:47.369Z,3.15
2023-03-28T11:18:14.929Z,2.92
2023-03-28T11:19:27.912Z,2.68
2023-03-28T11:20:41.165Z,2.47
2023-03-28T11:21:49.284Z,2.34
2023-03-28T11:23:05.631Z,2.21
2023-03-28T11:24:26.964Z,2.01
2023-03-28T11:25:57.118Z,1.94
2023-03-28T11:27:23.401Z,2.35
2023-03-28T11:28:46.545Z,2.95
2023-03-28T11:29:56.181Z,3.48
2023-03-28T11:31:05.089Z,3.91
2023-03-28T11:32:18.790Z,4.39
2023-03-28T11:33:28.266Z,4.78
2023-03-28T11:34:40.798Z,5.19
2023-03-28T11:35:48.607Z,5.49
2023-03-28T11:36:54.612Z,5.77
2023-03-28T11:38:00.984Z,6.12
2023-03-28T11:39:08.866Z,6.36
2023-03-28T11:40:18.413Z,6.57
2023-03-28T11:41:33.078Z,6.74
2023-03-28T11:42:49.391Z,6.77
2023-03-28T11:43:53.743Z,6.67
2023-03-28T11:45:02.700Z,6.71
2023-03-28T11:46:07.991Z,6.76
2023-03-28T11:47:12.458Z,6.70
2023-03-28T11:48:20.776Z,6.51
2023-03-28T11:49:26.677Z,6.18
2023-03-28T11:50:34.623Z,5.84
2023-03-28T11:51:48.047Z,5.48
2023-03-28T11:52:55.742Z,5.18
2023-03-28T11:54:04.166Z,4.85
2023-03-28T11:55:16.834Z,4.44
2023-03-28T11:56:26.556Z,4.08
2023-03-28T11:57:52.949Z,3.68
2023-03-28T11:58:57.889Z,3.46
2023-03-28T12:00:11.437Z,3.27
2023-03-28T12:01:21.577Z,3.13
2023-03-28T12:02:37.254Z,3.04
2023-03-28T12:03:47.213Z,2.97
2023-03-28T12:04:54.818Z,2.92
2023-03-28T12:06:04.842Z,2.90
2023-03-28T12:07:13.183Z,2.88
2023-03-28T12:08:23.605Z,2.84
2023-03-28T12:09:31.904Z,2.76
2023-03-28T12:10:37.219Z,2.72
2023-03-28T12:12:03.364Z,2.52
2023-03-28T12:13:12.065Z,2.40
2023-03-28T12:14:38.404Z,2.10
2023-03-28T12:15:57.459Z,1.81
2023-03-28T12:17:01.716Z,1.56
2023-03-28T12:18:06.916Z,1.35
2023-03-28T12:19:12.093Z,1.17
2023-03-28T12:20:28.029Z,0.97
2023-03-28T12:21:34.600Z,0.83
2023-03-28T12:22:42.656Z,0.73
2023-03-28T12:23:59.524Z,0.65
2023-03-28T12:25:36.202Z,0.56
2023-03-28T12:26:59.607Z,0.54
2023-03-28T12:28:05.620Z,0.57
2023-03-28T12:29:16.347Z,0.66
2023-03-28T12:30:22.956Z,0.85
2023-03-28T12:31:29.673Z,1.05
2023-03-28T12:32:46.789Z,1.34
2023-03-28T12:34:00.615Z,1.75
2023-03-28T12:35:35.251Z,2.30
2023-03-28T12:36:49.011Z,2.80
2023-03-28T12:37:59.518Z,3.25
2023-03-28T12:39:05.903Z,3.65
2023-03-28T12:40:25.294Z,4.14
2023-03-28T12:41:31.710Z,4.53
2023-03-28T12:42:34.910Z,4.92
2023-03-28T12:43:43.426Z,5.27
2023-03-28T12:44:52.014Z,5.50
2023-03-28T12:45:57.546Z,5.63
2023-03-28T12:47:01.836Z,5.73
2023-03-28T12:48:11.807Z,5.83
2023-03-28T12:49:18.660Z,5.98
2023-03-28T12:50:27.992Z,5.98
2023-03-28T12:51:35.433Z,5.90
2023-03-28T12:52:38.261Z,5.56
2023-03-28T12:53:48.455Z,5.16
2023-03-28T12:54:59.622Z,4.82
2023-03-28T12:56:13.550Z,4.49
2023-03-28T12:57:45.274Z,4.25
2023-03-28T12:59:40.198Z,3.98
2023-03-28T13:00:59.857Z,3.74
2023-03-28T13:02:14.842Z,3.53
2023-03-28T13:03:39.040Z,3.20
2023-03-28T13:04:47.288Z,2.91
2023-03-28T13:05:58.360Z,2.56
2023-03-28T13:07:05.527Z,2.20
2023-03-28T13:08:13.622Z,1.78
2023-03-28T13:09:40.379Z,1.34
2023-03-28T13:10:46.404Z,1.02
2023-03-28T13:11:54.360Z,0.88
2023-03-28T13:13:08.638Z,0.78
2023-03-28T13:14:29.234Z,0.76
2023-03-28T13:15:57.291Z,0.95
2023-03-28T13:17:01.426Z,1.15
2023-03-28T13:18:27.788Z,1.46
2023-03-28T13:19:46.828Z,1.56
2023-03-28T13:20:51.180Z,1.57
2023-03-28T13:21:56.188Z,1.57
2023-03-28T13:23:02.029Z,1.53
2023-03-28T13:24:05.162Z,1.42
2023-03-28T13:25:27.209Z,1.22
2023-03-28T13:26:54.753Z,1.00
2023-03-28T13:28:00.804Z,0.90
2023-03-28T13:29:03.712Z,0.89
2023-03-28T13:30:07.576Z,0.97
2023-03-28T13:31:13.105Z,1.15
2023-03-28T13:32:16.741Z,1.48
2023-03-28T13:33:24.823Z,1.83
2023-03-28T13:34:33.103Z,2.24
2023-03-28T13:35:45.820Z,2.55
2023-03-28T13:36:51.669Z,3.02
2023-03-28T13:37:53.613Z,3.40
2023-03-28T13:39:21.388Z,3.93
2023-03-28T13:40:42.518Z,4.39
2023-03-28T13:42:01.401Z,4.73
2023-03-28T13:43:23.361Z,5.04
2023-03-28T13:44:30.179Z,5.09
2023-03-28T13:45:33.463Z,4.99
2023-03-28T13:46:39.039Z,4.87
2023-03-28T13:47:42.746Z,4.77
2023-03-28T13:48:48.432Z,4.74
2023-03-28T13:49:53.479Z,4.77
2023-03-28T13:50:58.366Z,4.78
2023-03-28T13:52:04.955Z,4.79
2023-03-28T13:53:06.861Z,4.87
2023-03-28T13:54:10.638Z,5.04
2023-03-28T13:55:20.974Z,5.22
2023-03-28T13:56:24.786Z,5.37
2023-03-28T13:57:28.167Z,5.55
2023-03-28T13:58:31.378Z,5.65
2023-03-28T13:59:36.348Z,5.70
2023-03-28T14:00:38.337Z,5.78
2023-03-28T14:01:47.532Z,5.86
2023-03-28T14:02:51.346Z,6.00
2023-03-28T14:03:55.713Z,5.99
2023-03-28T14:05:05.920Z,6.05
2023-03-28T14:06:15.502Z,6.09
2023-03-28T14:07:24.547Z,6.10
2023-03-28T14:08:26.417Z,6.13
2023-03-28T14:09:36.099Z,6.15
2023-03-28T14:10:41.644Z,6.21
2023-03-28T14:11:44.014Z,6.09
2023-03-28T14:12:47.758Z,5.89
2023-03-28T14:13:53.495Z,5.83
2023-03-28T14:14:57.393Z,5.72
2023-03-28T14:16:00.652Z,5.53
2023-03-28T14:17:04.873Z,5.30
2023-03-28T14:18:09.503Z,5.05
2023-03-28T14:19:20.032Z,4.91
2023-03-28T14:20:24.202Z,4.86
2023-03-28T14:21:26.969Z,4.76
2023-03-28T14:22:31.001Z,4.64
2023-03-28T14:23:36.599Z,4.65
2023-03-28T14:24:39.583Z,4.81
2023-03-28T14:25:41.425Z,4.89
2023-03-28T14:26:44.164Z,4.92
2023-03-28T14:27:48.058Z,4.83
2023-03-28T14:28:53.580Z,4.64
2023-03-28T14:29:57.744Z,4.43
2023-03-28T14:30:59.850Z,4.23
2023-03-28T14:32:07.653Z,4.03
2023-03-28T14:33:21.101Z,3.75
2023-03-28T14:34:26.089Z,3.57
2023-03-28T14:35:30.260Z,3.34
2023-03-28T14:36:37.754Z,3.18
2023-03-28T14:37:48.485Z,3.00
2023-03-28T14:38:51.345Z,2.88
2023-03-28T14:39:54.324Z,2.73
2023-03-28T14:41:06.381Z,2.59
2023-03-28T14:42:14.524Z,2.45
2023-03-28T14:43:20.511Z,2.31
2023-03-28T14:44:24.859Z,2.20
2023-03-28T14:45:27.616Z,2.07
2023-03-28T14:46:32.855Z,1.94
2023-03-28T14:47:36.729Z,1.77
2023-03-28T14:48:39.065Z,1.59
2023-03-28T14:49:42.320Z,1.38
2023-03-28T14:50:44.894Z,1.16
2023-03-28T14:51:55.172Z,0.91
2023-03-28T14:53:00.540Z,0.69
2023-03-28T14:54:05.000Z,0.73
2023-03-28T14:55:09.641Z,0.90
2023-03-28T14:56:13.126Z,1.09
2023-03-28T14:57:16.969Z,1.29
2023-03-28T14:58:19.279Z,1.50
2023-03-28T14:59:22.332Z,1.67
2023-03-28T15:00:31.988Z,1.92
2023-03-28T15:01:34.376Z,2.17
2023-03-28T15:02:41.390Z,2.39
2023-03-28T15:03:45.853Z,2.56
2023-03-28T15:04:49.138Z,2.76
2023-03-28T15:05:55.030Z,2.92
2023-03-28T15:06:57.879Z,3.00
2023-03-28T15:08:02.236Z,3.17
2023-03-28T15:09:11.170Z,3.34
2023-03-28T15:10:23.375Z,3.52
2023-03-28T15:11:29.403Z,3.65
2023-03-28T15:12:32.406Z,3.81
2023-03-28T15:13:37.143Z,3.87